sensor_id;sensor_type;location;lat;lon;timestamp;P1;durP1;ratioP1;P2;durP2;ratioP2
44728;SDS011;30457;53.590;9.922;2023-11-22T00:03:41;2.85;;;1.58;;
44728;SDS011;30457;53.590;9.922;2023-11-22T00:08:06;2.65;;;1.88;;
44728;SDS011;30457;53.590;9.922;2023-11-22T00:12:32;3.20;;;2.15;;
44728;SDS011;30457;53.590;9.922;2023-11-22T00:17:01;2.08;;;1.67;;
44728;SDS011;30457;53.590;9.922;2023-11-22T00:21:27;2.42;;;1.48;;
44728;SDS011;30457;53.590;9.922;2023-11-22T00:25:53;1.65;;;1.42;;
44728;SDS011;30457;53.590;9.922;2023-11-22T00:30:18;1.52;;;1.42;;
44728;SDS011;30457;53.590;9.922;2023-11-22T00:34:44;2.00;;;1.45;;
44728;SDS011;30457;53.590;9.922;2023-11-22T00:39:10;2.65;;;1.60;;
44728;SDS011;30457;53.590;9.922;2023-11-22T00:43:39;2.38;;;1.98;;
44728;SDS011;30457;53.590;9.922;2023-11-22T00:48:04;2.25;;;1.70;;
44728;SDS011;30457;53.590;9.922;2023-11-22T00:52:30;3.33;;;1.77;;
44728;SDS011;30457;53.590;9.922;2023-11-22T00:56:56;3.17;;;2.30;;
44728;SDS011;30457;53.590;9.922;2023-11-22T01:01:22;2.42;;;1.60;;
44728;SDS011;30457;53.590;9.922;2023-11-22T01:05:47;5.32;;;1.75;;
44728;SDS011;30457;53.590;9.922;2023-11-22T01:10:13;2.47;;;2.05;;
44728;SDS011;30457;53.590;9.922;2023-11-22T01:14:40;2.70;;;1.33;;
44728;SDS011;30457;53.590;9.922;2023-11-22T01:19:05;4.93;;;1.70;;
44728;SDS011;30457;53.590;9.922;2023-11-22T01:23:32;2.20;;;1.77;;
44728;SDS011;30457;53.590;9.922;2023-11-22T01:27:57;2.58;;;1.60;;
44728;SDS011;30457;53.590;9.922;2023-11-22T01:32:23;2.47;;;1.60;;
44728;SDS011;30457;53.590;9.922;2023-11-22T01:36:49;2.42;;;1.63;;
44728;SDS011;30457;53.590;9.922;2023-11-22T01:41:15;2.88;;;2.03;;
44728;SDS011;30457;53.590;9.922;2023-11-22T01:45:41;3.28;;;2.08;;
44728;SDS011;30457;53.590;9.922;2023-11-22T01:50:07;2.50;;;2.00;;
44728;SDS011;30457;53.590;9.922;2023-11-22T01:54:33;3.30;;;2.15;;
44728;SDS011;30457;53.590;9.922;2023-11-22T01:58:59;2.92;;;1.80;;
44728;SDS011;30457;53.590;9.922;2023-11-22T02:03:26;3.15;;;1.90;;
44728;SDS011;30457;53.590;9.922;2023-11-22T02:07:51;3.15;;;2.10;;
44728;SDS011;30457;53.590;9.922;2023-11-22T02:12:17;3.20;;;2.25;;
44728;SDS011;30457;53.590;9.922;2023-11-22T02:16:42;2.50;;;1.77;;
44728;SDS011;30457;53.590;9.922;2023-11-22T02:21:08;1.80;;;1.70;;
44728;SDS011;30457;53.590;9.922;2023-11-22T02:25:34;2.40;;;1.70;;
44728;SDS011;30457;53.590;9.922;2023-11-22T02:30:01;2.78;;;2.10;;
44728;SDS011;30457;53.590;9.922;2023-11-22T02:34:30;3.15;;;2.00;;
44728;SDS011;30457;53.590;9.922;2023-11-22T02:38:56;3.65;;;1.83;;
44728;SDS011;30457;53.590;9.922;2023-11-22T02:43:22;2.35;;;1.75;;
44728;SDS011;30457;53.590;9.922;2023-11-22T02:47:48;2.20;;;1.85;;
44728;SDS011;30457;53.590;9.922;2023-11-22T02:52:14;3.85;;;2.00;;
44728;SDS011;30457;53.590;9.922;2023-11-22T02:56:41;3.17;;;1.67;;
44728;SDS011;30457;53.590;9.922;2023-11-22T03:01:06;4.70;;;1.88;;
44728;SDS011;30457;53.590;9.922;2023-11-22T03:05:34;3.78;;;2.47;;
44728;SDS011;30457;53.590;9.922;2023-11-22T03:10:02;2.75;;;1.90;;
44728;SDS011;30457;53.590;9.922;2023-11-22T03:14:28;2.20;;;1.80;;
44728;SDS011;30457;53.590;9.922;2023-11-22T03:18:54;2.38;;;1.52;;
44728;SDS011;30457;53.590;9.922;2023-11-22T03:23:21;2.92;;;1.60;;
44728;SDS011;30457;53.590;9.922;2023-11-22T03:27:47;1.92;;;1.80;;
44728;SDS011;30457;53.590;9.922;2023-11-22T03:32:13;2.38;;;1.70;;
44728;SDS011;30457;53.590;9.922;2023-11-22T03:36:40;3.60;;;2.15;;
44728;SDS011;30457;53.590;9.922;2023-11-22T03:41:05;3.53;;;1.88;;
44728;SDS011;30457;53.590;9.922;2023-11-22T03:45:31;3.15;;;1.90;;
44728;SDS011;30457;53.590;9.922;2023-11-22T03:49:58;3.35;;;2.15;;
44728;SDS011;30457;53.590;9.922;2023-11-22T03:54:24;4.60;;;2.20;;
44728;SDS011;30457;53.590;9.922;2023-11-22T03:58:50;2.40;;;1.85;;
44728;SDS011;30457;53.590;9.922;2023-11-22T04:03:15;3.47;;;2.13;;
44728;SDS011;30457;53.590;9.922;2023-11-22T04:07:42;2.55;;;1.70;;
44728;SDS011;30457;53.590;9.922;2023-11-22T04:12:08;2.63;;;1.95;;
44728;SDS011;30457;53.590;9.922;2023-11-22T04:16:33;2.33;;;1.75;;
44728;SDS011;30457;53.590;9.922;2023-11-22T04:20:59;2.63;;;1.98;;
44728;SDS011;30457;53.590;9.922;2023-11-22T04:25:26;2.60;;;1.80;;
44728;SDS011;30457;53.590;9.922;2023-11-22T04:29:52;3.75;;;2.20;;
44728;SDS011;30457;53.590;9.922;2023-11-22T04:34:17;2.75;;;1.85;;
44728;SDS011;30457;53.590;9.922;2023-11-22T04:38:43;3.13;;;2.08;;
44728;SDS011;30457;53.590;9.922;2023-11-22T04:43:08;2.60;;;2.05;;
44728;SDS011;30457;53.590;9.922;2023-11-22T04:47:34;8.75;;;2.28;;
44728;SDS011;30457;53.590;9.922;2023-11-22T04:51:59;2.92;;;2.08;;
44728;SDS011;30457;53.590;9.922;2023-11-22T04:56:26;3.28;;;2.28;;
44728;SDS011;30457;53.590;9.922;2023-11-22T05:00:52;3.33;;;2.25;;
44728;SDS011;30457;53.590;9.922;2023-11-22T05:05:17;2.47;;;1.90;;
44728;SDS011;30457;53.590;9.922;2023-11-22T05:09:43;3.65;;;2.20;;
44728;SDS011;30457;53.590;9.922;2023-11-22T05:14:08;2.03;;;1.80;;
44728;SDS011;30457;53.590;9.922;2023-11-22T05:18:34;3.15;;;2.15;;
44728;SDS011;30457;53.590;9.922;2023-11-22T05:23:00;3.72;;;1.92;;
44728;SDS011;30457;53.590;9.922;2023-11-22T05:27:26;4.05;;;2.33;;
44728;SDS011;30457;53.590;9.922;2023-11-22T05:31:53;3.22;;;1.92;;
44728;SDS011;30457;53.590;9.922;2023-11-22T05:36:18;2.65;;;2.03;;
44728;SDS011;30457;53.590;9.922;2023-11-22T05:40:44;2.78;;;2.17;;
44728;SDS011;30457;53.590;9.922;2023-11-22T05:45:10;2.03;;;1.80;;
44728;SDS011;30457;53.590;9.922;2023-11-22T05:49:36;4.95;;;2.28;;
44728;SDS011;30457;53.590;9.922;2023-11-22T05:54:01;2.90;;;2.20;;
44728;SDS011;30457;53.590;9.922;2023-11-22T05:58:27;3.53;;;2.00;;
44728;SDS011;30457;53.590;9.922;2023-11-22T06:02:52;3.08;;;2.47;;
44728;SDS011;30457;53.590;9.922;2023-11-22T06:07:18;3.38;;;1.85;;
44728;SDS011;30457;53.590;9.922;2023-11-22T06:11:43;3.45;;;2.75;;
44728;SDS011;30457;53.590;9.922;2023-11-22T06:16:09;2.50;;;2.00;;
44728;SDS011;30457;53.590;9.922;2023-11-22T06:20:35;2.55;;;2.30;;
44728;SDS011;30457;53.590;9.922;2023-11-22T06:25:00;2.80;;;2.15;;
44728;SDS011;30457;53.590;9.922;2023-11-22T06:29:26;3.70;;;2.05;;
44728;SDS011;30457;53.590;9.922;2023-11-22T06:33:51;3.70;;;2.25;;
44728;SDS011;30457;53.590;9.922;2023-11-22T06:38:17;4.05;;;2.35;;
44728;SDS011;30457;53.590;9.922;2023-11-22T06:42:43;4.55;;;2.22;;
44728;SDS011;30457;53.590;9.922;2023-11-22T06:47:09;2.47;;;2.03;;
44728;SDS011;30457;53.590;9.922;2023-11-22T06:51:34;4.18;;;2.15;;
44728;SDS011;30457;53.590;9.922;2023-11-22T06:56:00;3.30;;;2.80;;
44728;SDS011;30457;53.590;9.922;2023-11-22T07:00:26;3.55;;;2.15;;
44728;SDS011;30457;53.590;9.922;2023-11-22T07:04:52;5.68;;;2.50;;
44728;SDS011;30457;53.590;9.922;2023-11-22T07:09:18;3.25;;;2.45;;
44728;SDS011;30457;53.590;9.922;2023-11-22T07:13:44;6.72;;;3.53;;
44728;SDS011;30457;53.590;9.922;2023-11-22T07:18:09;6.75;;;3.80;;
44728;SDS011;30457;53.590;9.922;2023-11-22T07:22:35;4.72;;;2.88;;
44728;SDS011;30457;53.590;9.922;2023-11-22T07:27:01;5.50;;;2.88;;
44728;SDS011;30457;53.590;9.922;2023-11-22T07:31:27;4.75;;;2.90;;
44728;SDS011;30457;53.590;9.922;2023-11-22T07:35:54;10.10;;;3.03;;
44728;SDS011;30457;53.590;9.922;2023-11-22T07:40:19;5.63;;;3.00;;
44728;SDS011;30457;53.590;9.922;2023-11-22T07:44:47;3.88;;;3.10;;
44728;SDS011;30457;53.590;9.922;2023-11-22T07:49:13;7.47;;;3.25;;
44728;SDS011;30457;53.590;9.922;2023-11-22T07:53:38;7.22;;;2.90;;
44728;SDS011;30457;53.590;9.922;2023-11-22T07:58:05;5.28;;;3.03;;
44728;SDS011;30457;53.590;9.922;2023-11-22T08:02:34;8.00;;;3.45;;
44728;SDS011;30457;53.590;9.922;2023-11-22T08:06:59;8.32;;;3.10;;
44728;SDS011;30457;53.590;9.922;2023-11-22T08:11:26;6.35;;;3.72;;
44728;SDS011;30457;53.590;9.922;2023-11-22T08:15:52;8.05;;;3.90;;
44728;SDS011;30457;53.590;9.922;2023-11-22T08:20:18;8.75;;;4.00;;
44728;SDS011;30457;53.590;9.922;2023-11-22T08:24:44;5.00;;;2.90;;
44728;SDS011;30457;53.590;9.922;2023-11-22T08:29:11;4.45;;;2.80;;
44728;SDS011;30457;53.590;9.922;2023-11-22T08:33:39;9.23;;;3.55;;
44728;SDS011;30457;53.590;9.922;2023-11-22T08:38:05;10.18;;;3.38;;
44728;SDS011;30457;53.590;9.922;2023-11-22T08:42:34;7.85;;;4.13;;
44728;SDS011;30457;53.590;9.922;2023-11-22T08:47:02;4.60;;;2.67;;
44728;SDS011;30457;53.590;9.922;2023-11-22T08:51:28;8.77;;;3.20;;
44728;SDS011;30457;53.590;9.922;2023-11-22T08:55:54;5.03;;;3.40;;
44728;SDS011;30457;53.590;9.922;2023-11-22T09:00:19;4.28;;;2.80;;
44728;SDS011;30457;53.590;9.922;2023-11-22T09:04:47;4.70;;;3.20;;
44728;SDS011;30457;53.590;9.922;2023-11-22T09:09:13;7.45;;;4.05;;
44728;SDS011;30457;53.590;9.922;2023-11-22T09:13:40;5.68;;;4.13;;
44728;SDS011;30457;53.590;9.922;2023-11-22T09:18:05;6.72;;;3.95;;
44728;SDS011;30457;53.590;9.922;2023-11-22T09:22:31;8.82;;;3.97;;
44728;SDS011;30457;53.590;9.922;2023-11-22T09:26:57;9.35;;;4.40;;
44728;SDS011;30457;53.590;9.922;2023-11-22T09:31:23;7.18;;;4.05;;
44728;SDS011;30457;53.590;9.922;2023-11-22T09:35:48;8.18;;;4.35;;
44728;SDS011;30457;53.590;9.922;2023-11-22T09:40:14;6.72;;;3.47;;
44728;SDS011;30457;53.590;9.922;2023-11-22T09:44:42;9.57;;;3.97;;
44728;SDS011;30457;53.590;9.922;2023-11-22T09:49:08;5.63;;;3.72;;
44728;SDS011;30457;53.590;9.922;2023-11-22T09:53:40;5.05;;;3.28;;
44728;SDS011;30457;53.590;9.922;2023-11-22T09:58:17;6.80;;;4.40;;
44728;SDS011;30457;53.590;9.922;2023-11-22T10:02:44;14.63;;;6.57;;
44728;SDS011;30457;53.590;9.922;2023-11-22T10:07:10;7.75;;;4.65;;
44728;SDS011;30457;53.590;9.922;2023-11-22T10:11:36;7.13;;;4.28;;
44728;SDS011;30457;53.590;9.922;2023-11-22T10:16:12;4.63;;;3.53;;
44728;SDS011;30457;53.590;9.922;2023-11-22T10:20:41;3.95;;;2.78;;
44728;SDS011;30457;53.590;9.922;2023-11-22T10:25:07;13.73;;;4.07;;
44728;SDS011;30457;53.590;9.922;2023-11-22T10:29:35;5.05;;;3.33;;
44728;SDS011;30457;53.590;9.922;2023-11-22T10:34:01;8.95;;;3.17;;
44728;SDS011;30457;53.590;9.922;2023-11-22T10:38:28;6.53;;;3.08;;
44728;SDS011;30457;53.590;9.922;2023-11-22T10:42:54;4.75;;;2.95;;
44728;SDS011;30457;53.590;9.922;2023-11-22T10:47:21;6.25;;;3.22;;
44728;SDS011;30457;53.590;9.922;2023-11-22T10:51:51;7.45;;;4.22;;
44728;SDS011;30457;53.590;9.922;2023-11-22T10:56:19;6.03;;;4.47;;
44728;SDS011;30457;53.590;9.922;2023-11-22T11:00:45;6.65;;;4.30;;
44728;SDS011;30457;53.590;9.922;2023-11-22T11:05:15;4.50;;;3.65;;
44728;SDS011;30457;53.590;9.922;2023-11-22T11:09:44;6.65;;;3.65;;
44728;SDS011;30457;53.590;9.922;2023-11-22T11:14:11;4.05;;;2.70;;
44728;SDS011;30457;53.590;9.922;2023-11-22T11:18:38;2.35;;;1.75;;
44728;SDS011;30457;53.590;9.922;2023-11-22T11:23:05;2.60;;;1.63;;
44728;SDS011;30457;53.590;9.922;2023-11-22T11:27:32;5.30;;;1.92;;
44728;SDS011;30457;53.590;9.922;2023-11-22T11:32:02;1.85;;;1.50;;
44728;SDS011;30457;53.590;9.922;2023-11-22T11:36:29;2.80;;;1.30;;
44728;SDS011;30457;53.590;9.922;2023-11-22T11:40:58;2.03;;;1.20;;
44728;SDS011;30457;53.590;9.922;2023-11-22T11:45:37;2.15;;;1.10;;
44728;SDS011;30457;53.590;9.922;2023-11-22T11:50:04;1.65;;;0.95;;
44728;SDS011;30457;53.590;9.922;2023-11-22T11:54:30;1.48;;;1.10;;
44728;SDS011;30457;53.590;9.922;2023-11-22T11:58:56;2.53;;;0.88;;
44728;SDS011;30457;53.590;9.922;2023-11-22T12:03:24;1.20;;;1.00;;
44728;SDS011;30457;53.590;9.922;2023-11-22T12:07:50;1.38;;;0.85;;
44728;SDS011;30457;53.590;9.922;2023-11-22T12:12:16;2.35;;;1.00;;
44728;SDS011;30457;53.590;9.922;2023-11-22T12:16:41;1.00;;;0.80;;
44728;SDS011;30457;53.590;9.922;2023-11-22T12:21:09;1.35;;;0.70;;
44728;SDS011;30457;53.590;9.922;2023-11-22T12:25:40;1.63;;;0.93;;
44728;SDS011;30457;53.590;9.922;2023-11-22T12:30:08;1.00;;;0.85;;
44728;SDS011;30457;53.590;9.922;2023-11-22T12:34:36;1.25;;;0.77;;
44728;SDS011;30457;53.590;9.922;2023-11-22T12:39:02;0.63;;;0.63;;
44728;SDS011;30457;53.590;9.922;2023-11-22T12:43:29;1.50;;;1.13;;
44728;SDS011;30457;53.590;9.922;2023-11-22T12:47:56;1.60;;;0.90;;
44728;SDS011;30457;53.590;9.922;2023-11-22T12:52:26;1.17;;;0.70;;
44728;SDS011;30457;53.590;9.922;2023-11-22T12:56:52;0.85;;;0.73;;
44728;SDS011;30457;53.590;9.922;2023-11-22T13:01:24;3.63;;;2.05;;
44728;SDS011;30457;53.590;9.922;2023-11-22T13:05:49;2.90;;;1.05;;
44728;SDS011;30457;53.590;9.922;2023-11-22T13:10:18;1.55;;;0.93;;
44728;SDS011;30457;53.590;9.922;2023-11-22T13:14:44;7.47;;;1.20;;
44728;SDS011;30457;53.590;9.922;2023-11-22T13:19:09;1.52;;;0.68;;
44728;SDS011;30457;53.590;9.922;2023-11-22T13:23:35;4.65;;;0.95;;
44728;SDS011;30457;53.590;9.922;2023-11-22T13:28:01;1.05;;;0.90;;
44728;SDS011;30457;53.590;9.922;2023-11-22T13:32:27;2.45;;;1.00;;
44728;SDS011;30457;53.590;9.922;2023-11-22T13:36:52;1.83;;;1.02;;
44728;SDS011;30457;53.590;9.922;2023-11-22T13:41:20;1.30;;;1.00;;
44728;SDS011;30457;53.590;9.922;2023-11-22T13:45:45;1.98;;;1.10;;
44728;SDS011;30457;53.590;9.922;2023-11-22T13:50:11;2.30;;;1.00;;
44728;SDS011;30457;53.590;9.922;2023-11-22T13:54:39;4.00;;;1.00;;
44728;SDS011;30457;53.590;9.922;2023-11-22T13:59:05;1.10;;;0.98;;
44728;SDS011;30457;53.590;9.922;2023-11-22T14:03:30;3.85;;;2.10;;
44728;SDS011;30457;53.590;9.922;2023-11-22T14:07:56;3.40;;;1.30;;
44728;SDS011;30457;53.590;9.922;2023-11-22T14:12:47;3.05;;;1.25;;
44728;SDS011;30457;53.590;9.922;2023-11-22T14:17:39;1.38;;;1.27;;
44728;SDS011;30457;53.590;9.922;2023-11-22T14:22:14;6.28;;;1.30;;
44728;SDS011;30457;53.590;9.922;2023-11-22T14:26:40;2.72;;;1.33;;
44728;SDS011;30457;53.590;9.922;2023-11-22T14:31:06;1.33;;;1.13;;
44728;SDS011;30457;53.590;9.922;2023-11-22T14:35:33;5.88;;;1.67;;
44728;SDS011;30457;53.590;9.922;2023-11-22T14:40:00;1.48;;;1.25;;
44728;SDS011;30457;53.590;9.922;2023-11-22T14:44:29;1.85;;;1.30;;
44728;SDS011;30457;53.590;9.922;2023-11-22T14:48:56;1.88;;;1.50;;
44728;SDS011;30457;53.590;9.922;2023-11-22T14:53:21;2.00;;;1.17;;
44728;SDS011;30457;53.590;9.922;2023-11-22T14:57:49;1.30;;;1.00;;
44728;SDS011;30457;53.590;9.922;2023-11-22T15:02:15;2.05;;;1.17;;
44728;SDS011;30457;53.590;9.922;2023-11-22T15:06:41;1.77;;;1.33;;
44728;SDS011;30457;53.590;9.922;2023-11-22T15:11:09;1.88;;;1.13;;
44728;SDS011;30457;53.590;9.922;2023-11-22T15:15:35;1.38;;;1.02;;
44728;SDS011;30457;53.590;9.922;2023-11-22T15:20:00;6.85;;;1.10;;
44728;SDS011;30457;53.590;9.922;2023-11-22T15:24:26;1.42;;;0.95;;
44728;SDS011;30457;53.590;9.922;2023-11-22T15:28:51;1.95;;;0.98;;
44728;SDS011;30457;53.590;9.922;2023-11-22T15:33:17;1.45;;;1.00;;
44728;SDS011;30457;53.590;9.922;2023-11-22T15:37:43;1.52;;;0.98;;
44728;SDS011;30457;53.590;9.922;2023-11-22T15:42:08;1.38;;;0.80;;
44728;SDS011;30457;53.590;9.922;2023-11-22T15:46:34;1.50;;;1.10;;
44728;SDS011;30457;53.590;9.922;2023-11-22T15:51:00;0.80;;;0.77;;
44728;SDS011;30457;53.590;9.922;2023-11-22T15:55:25;4.07;;;1.10;;
44728;SDS011;30457;53.590;9.922;2023-11-22T15:59:51;2.35;;;1.23;;
44728;SDS011;30457;53.590;9.922;2023-11-22T16:04:17;1.10;;;1.00;;
44728;SDS011;30457;53.590;9.922;2023-11-22T16:08:42;1.48;;;1.17;;
44728;SDS011;30457;53.590;9.922;2023-11-22T16:13:08;1.17;;;0.90;;
44728;SDS011;30457;53.590;9.922;2023-11-22T16:17:33;2.70;;;1.30;;
44728;SDS011;30457;53.590;9.922;2023-11-22T16:22:01;1.85;;;1.50;;
44728;SDS011;30457;53.590;9.922;2023-11-22T16:26:26;1.55;;;1.17;;
44728;SDS011;30457;53.590;9.922;2023-11-22T16:30:52;1.10;;;0.93;;
44728;SDS011;30457;53.590;9.922;2023-11-22T16:35:17;2.70;;;1.30;;
44728;SDS011;30457;53.590;9.922;2023-11-22T16:39:43;2.40;;;1.35;;
44728;SDS011;30457;53.590;9.922;2023-11-22T16:44:09;2.35;;;1.35;;
44728;SDS011;30457;53.590;9.922;2023-11-22T16:48:34;2.17;;;1.75;;
44728;SDS011;30457;53.590;9.922;2023-11-22T16:53:00;1.70;;;1.60;;
44728;SDS011;30457;53.590;9.922;2023-11-22T16:57:25;2.90;;;1.70;;
44728;SDS011;30457;53.590;9.922;2023-11-22T17:01:51;2.53;;;1.95;;
44728;SDS011;30457;53.590;9.922;2023-11-22T17:06:16;2.10;;;1.67;;
44728;SDS011;30457;53.590;9.922;2023-11-22T17:10:43;2.40;;;1.90;;
44728;SDS011;30457;53.590;9.922;2023-11-22T17:15:09;3.55;;;1.83;;
44728;SDS011;30457;53.590;9.922;2023-11-22T17:19:34;1.55;;;1.45;;
44728;SDS011;30457;53.590;9.922;2023-11-22T17:24:00;2.70;;;2.00;;
44728;SDS011;30457;53.590;9.922;2023-11-22T17:28:28;5.65;;;2.28;;
44728;SDS011;30457;53.590;9.922;2023-11-22T17:32:53;2.30;;;2.03;;
44728;SDS011;30457;53.590;9.922;2023-11-22T17:37:19;4.40;;;2.70;;
44728;SDS011;30457;53.590;9.922;2023-11-22T17:41:45;3.50;;;2.30;;
44728;SDS011;30457;53.590;9.922;2023-11-22T17:46:10;3.95;;;2.20;;
44728;SDS011;30457;53.590;9.922;2023-11-22T17:50:36;6.10;;;2.20;;
44728;SDS011;30457;53.590;9.922;2023-11-22T17:55:02;2.40;;;1.70;;
44728;SDS011;30457;53.590;9.922;2023-11-22T17:59:29;4.18;;;2.20;;
44728;SDS011;30457;53.590;9.922;2023-11-22T18:03:55;6.75;;;2.67;;
44728;SDS011;30457;53.590;9.922;2023-11-22T18:08:20;3.83;;;2.53;;
44728;SDS011;30457;53.590;9.922;2023-11-22T18:12:47;4.00;;;2.22;;
44728;SDS011;30457;53.590;9.922;2023-11-22T18:17:14;4.70;;;2.35;;
44728;SDS011;30457;53.590;9.922;2023-11-22T18:21:40;5.82;;;2.63;;
44728;SDS011;30457;53.590;9.922;2023-11-22T18:26:05;3.05;;;2.17;;
44728;SDS011;30457;53.590;9.922;2023-11-22T18:30:31;3.33;;;2.30;;
44728;SDS011;30457;53.590;9.922;2023-11-22T18:34:57;4.00;;;2.00;;
44728;SDS011;30457;53.590;9.922;2023-11-22T18:39:23;4.07;;;2.38;;
44728;SDS011;30457;53.590;9.922;2023-11-22T18:43:49;6.07;;;2.60;;
44728;SDS011;30457;53.590;9.922;2023-11-22T18:48:14;2.83;;;2.20;;
44728;SDS011;30457;53.590;9.922;2023-11-22T18:52:41;3.15;;;2.45;;
44728;SDS011;30457;53.590;9.922;2023-11-22T18:57:06;3.80;;;2.60;;
44728;SDS011;30457;53.590;9.922;2023-11-22T19:01:34;3.83;;;2.65;;
44728;SDS011;30457;53.590;9.922;2023-11-22T19:05:59;3.10;;;2.35;;
44728;SDS011;30457;53.590;9.922;2023-11-22T19:10:25;4.57;;;2.40;;
44728;SDS011;30457;53.590;9.922;2023-11-22T19:14:51;3.45;;;2.33;;
44728;SDS011;30457;53.590;9.922;2023-11-22T19:19:17;4.03;;;2.40;;
44728;SDS011;30457;53.590;9.922;2023-11-22T19:23:43;4.63;;;2.75;;
44728;SDS011;30457;53.590;9.922;2023-11-22T19:28:09;3.65;;;1.83;;
44728;SDS011;30457;53.590;9.922;2023-11-22T19:32:34;4.35;;;2.50;;
44728;SDS011;30457;53.590;9.922;2023-11-22T19:37:00;3.47;;;2.28;;
44728;SDS011;30457;53.590;9.922;2023-11-22T19:41:25;4.10;;;2.22;;
44728;SDS011;30457;53.590;9.922;2023-11-22T19:45:52;3.63;;;2.58;;
44728;SDS011;30457;53.590;9.922;2023-11-22T19:50:17;2.95;;;2.17;;
44728;SDS011;30457;53.590;9.922;2023-11-22T19:54:45;3.97;;;2.20;;
44728;SDS011;30457;53.590;9.922;2023-11-22T19:59:10;4.30;;;2.15;;
44728;SDS011;30457;53.590;9.922;2023-11-22T20:03:36;5.72;;;2.40;;
44728;SDS011;30457;53.590;9.922;2023-11-22T20:08:02;2.25;;;1.83;;
44728;SDS011;30457;53.590;9.922;2023-11-22T20:12:28;7.47;;;2.45;;
44728;SDS011;30457;53.590;9.922;2023-11-22T20:16:54;2.83;;;2.25;;
44728;SDS011;30457;53.590;9.922;2023-11-22T20:21:20;3.90;;;2.38;;
44728;SDS011;30457;53.590;9.922;2023-11-22T20:25:45;4.40;;;3.05;;
44728;SDS011;30457;53.590;9.922;2023-11-22T20:30:11;4.15;;;2.65;;
44728;SDS011;30457;53.590;9.922;2023-11-22T20:34:36;4.57;;;2.40;;
44728;SDS011;30457;53.590;9.922;2023-11-22T20:39:04;8.30;;;2.58;;
44728;SDS011;30457;53.590;9.922;2023-11-22T20:43:29;3.40;;;2.60;;
44728;SDS011;30457;53.590;9.922;2023-11-22T20:47:55;3.65;;;2.67;;
44728;SDS011;30457;53.590;9.922;2023-11-22T20:52:21;4.28;;;2.63;;
44728;SDS011;30457;53.590;9.922;2023-11-22T20:56:46;6.50;;;3.20;;
44728;SDS011;30457;53.590;9.922;2023-11-22T21:01:14;4.70;;;2.88;;
44728;SDS011;30457;53.590;9.922;2023-11-22T21:05:39;5.03;;;2.50;;
44728;SDS011;30457;53.590;9.922;2023-11-22T21:10:05;4.53;;;2.70;;
44728;SDS011;30457;53.590;9.922;2023-11-22T21:14:31;6.95;;;3.25;;
44728;SDS011;30457;53.590;9.922;2023-11-22T21:18:58;5.32;;;3.33;;
44728;SDS011;30457;53.590;9.922;2023-11-22T21:23:24;7.05;;;3.33;;
44728;SDS011;30457;53.590;9.922;2023-11-22T21:27:49;6.00;;;3.58;;
44728;SDS011;30457;53.590;9.922;2023-11-22T21:32:15;8.38;;;4.40;;
44728;SDS011;30457;53.590;9.922;2023-11-22T21:36:42;7.32;;;4.05;;
44728;SDS011;30457;53.590;9.922;2023-11-22T21:41:09;8.10;;;4.22;;
44728;SDS011;30457;53.590;9.922;2023-11-22T21:45:36;9.65;;;4.82;;
44728;SDS011;30457;53.590;9.922;2023-11-22T21:50:02;8.15;;;4.30;;
44728;SDS011;30457;53.590;9.922;2023-11-22T21:54:29;10.48;;;4.72;;
44728;SDS011;30457;53.590;9.922;2023-11-22T21:58:54;7.80;;;4.80;;
44728;SDS011;30457;53.590;9.922;2023-11-22T22:03:20;10.13;;;4.75;;
44728;SDS011;30457;53.590;9.922;2023-11-22T22:07:45;8.82;;;4.47;;
44728;SDS011;30457;53.590;9.922;2023-11-22T22:12:11;7.97;;;4.70;;
44728;SDS011;30457;53.590;9.922;2023-11-22T22:16:36;10.57;;;5.10;;
44728;SDS011;30457;53.590;9.922;2023-11-22T22:21:02;9.77;;;5.63;;
44728;SDS011;30457;53.590;9.922;2023-11-22T22:25:28;9.35;;;4.97;;
44728;SDS011;30457;53.590;9.922;2023-11-22T22:29:54;15.50;;;5.45;;
44728;SDS011;30457;53.590;9.922;2023-11-22T22:34:19;7.05;;;4.35;;
44728;SDS011;30457;53.590;9.922;2023-11-22T22:38:46;11.13;;;4.75;;
44728;SDS011;30457;53.590;9.922;2023-11-22T22:43:12;8.82;;;5.03;;
44728;SDS011;30457;53.590;9.922;2023-11-22T22:47:38;9.80;;;4.90;;
44728;SDS011;30457;53.590;9.922;2023-11-22T22:52:05;11.45;;;6.07;;
44728;SDS011;30457;53.590;9.922;2023-11-22T22:56:31;10.02;;;5.63;;
44728;SDS011;30457;53.590;9.922;2023-11-22T23:00:56;9.50;;;5.20;;
44728;SDS011;30457;53.590;9.922;2023-11-22T23:05:22;15.10;;;6.93;;
44728;SDS011;30457;53.590;9.922;2023-11-22T23:09:47;11.05;;;6.00;;
44728;SDS011;30457;53.590;9.922;2023-11-22T23:14:13;11.00;;;5.63;;
44728;SDS011;30457;53.590;9.922;2023-11-22T23:18:40;12.23;;;5.35;;
44728;SDS011;30457;53.590;9.922;2023-11-22T23:23:09;11.07;;;6.72;;
44728;SDS011;30457;53.590;9.922;2023-11-22T23:27:34;11.38;;;5.43;;
44728;SDS011;30457;53.590;9.922;2023-11-22T23:32:02;13.00;;;6.70;;
44728;SDS011;30457;53.590;9.922;2023-11-22T23:36:28;14.00;;;6.40;;
44728;SDS011;30457;53.590;9.922;2023-11-22T23:40:57;17.17;;;7.90;;
44728;SDS011;30457;53.590;9.922;2023-11-22T23:45:22;13.80;;;7.00;;
44728;SDS011;30457;53.590;9.922;2023-11-22T23:49:48;13.73;;;7.15;;
44728;SDS011;30457;53.590;9.922;2023-11-22T23:54:14;10.40;;;6.40;;
44728;SDS011;30457;53.590;9.922;2023-11-22T23:58:39;15.13;;;7.40;;
